sensor_id;sensor_type;location;lat;lon;timestamp;noise_LAeq;noise_LA_min;noise_LA_max;noise_LA01;noise_LA95
49732;Laerm;43666;51.442;6.778;2023-06-10T00:01:39;40.13;37.88;41.82;;
49732;Laerm;43666;51.442;6.778;2023-06-10T00:04:05;40.13;38.21;41.89;;
49732;Laerm;43666;51.442;6.778;2023-06-10T00:06:31;40.11;38.21;41.82;;
49732;Laerm;43666;51.442;6.778;2023-06-10T00:09:02;40.10;37.88;41.68;;
49732;Laerm;43666;51.442;6.778;2023-06-10T00:11:30;40.09;38.05;41.82;;
49732;Laerm;43666;51.442;6.778;2023-06-10T00:13:55;40.08;37.88;41.96;;
49732;Laerm;43666;51.442;6.778;2023-06-10T00:16:21;40.08;37.70;42.03;;
49732;Laerm;43666;51.442;6.778;2023-06-10T00:18:48;40.08;37.88;41.75;;
49732;Laerm;43666;51.442;6.778;2023-06-10T00:21:14;40.09;38.05;41.82;;
49732;Laerm;43666;51.442;6.778;2023-06-10T00:23:40;40.05;37.88;41.68;;
49732;Laerm;43666;51.442;6.778;2023-06-10T00:26:06;40.07;38.05;41.82;;
49732;Laerm;43666;51.442;6.778;2023-06-10T00:28:32;40.05;37.88;41.68;;
49732;Laerm;43666;51.442;6.778;2023-06-10T00:30:58;40.06;37.88;41.68;;
49732;Laerm;43666;51.442;6.778;2023-06-10T00:33:24;40.04;38.05;41.75;;
49732;Laerm;43666;51.442;6.778;2023-06-10T00:35:50;40.02;37.70;41.75;;
49732;Laerm;43666;51.442;6.778;2023-06-10T00:38:16;40.02;37.88;41.75;;
49732;Laerm;43666;51.442;6.778;2023-06-10T00:40:41;39.99;37.88;41.75;;
49732;Laerm;43666;51.442;6.778;2023-06-10T00:43:07;39.96;38.05;41.61;;
49732;Laerm;43666;51.442;6.778;2023-06-10T00:45:33;39.95;36.91;41.96;;
49732;Laerm;43666;51.442;6.778;2023-06-10T00:48:02;39.95;37.52;41.61;;
49732;Laerm;43666;51.442;6.778;2023-06-10T00:50:28;39.94;37.70;41.75;;
49732;Laerm;43666;51.442;6.778;2023-06-10T00:52:55;39.93;37.52;41.53;;
49732;Laerm;43666;51.442;6.778;2023-06-10T00:55:20;39.93;37.52;41.68;;
49732;Laerm;43666;51.442;6.778;2023-06-10T00:57:47;39.90;37.88;41.89;;
49732;Laerm;43666;51.442;6.778;2023-06-10T01:00:16;39.89;37.88;41.68;;
49732;Laerm;43666;51.442;6.778;2023-06-10T01:02:49;39.87;37.88;41.75;;
49732;Laerm;43666;51.442;6.778;2023-06-10T01:05:14;39.88;38.05;41.82;;
49732;Laerm;43666;51.442;6.778;2023-06-10T01:07:43;39.87;37.87;41.61;;
49732;Laerm;43666;51.442;6.778;2023-06-10T01:15:05;39.82;37.70;41.53;;
49732;Laerm;43666;51.442;6.778;2023-06-10T01:17:31;39.79;37.88;41.46;;
49732;Laerm;43666;51.442;6.778;2023-06-10T01:19:57;39.79;37.52;41.46;;
49732;Laerm;43666;51.442;6.778;2023-06-10T01:22:24;39.77;37.32;41.46;;
49732;Laerm;43666;51.442;6.778;2023-06-10T01:24:52;39.76;37.88;41.53;;
49732;Laerm;43666;51.442;6.778;2023-06-10T01:27:19;39.75;37.70;41.53;;
49732;Laerm;43666;51.442;6.778;2023-06-10T01:29:50;39.76;37.32;41.61;;
49732;Laerm;43666;51.442;6.778;2023-06-10T01:32:21;39.74;37.70;41.53;;
49732;Laerm;43666;51.442;6.778;2023-06-10T01:34:48;39.74;37.70;41.53;;
49732;Laerm;43666;51.442;6.778;2023-06-10T01:37:16;39.75;37.87;41.46;;
49732;Laerm;43666;51.442;6.778;2023-06-10T01:39:43;39.73;37.12;41.46;;
49732;Laerm;43666;51.442;6.778;2023-06-10T01:42:11;39.71;37.52;41.46;;
49732;Laerm;43666;51.442;6.778;2023-06-10T01:44:38;39.74;37.52;41.30;;
49732;Laerm;43666;51.442;6.778;2023-06-10T01:47:04;39.73;37.70;41.30;;
49732;Laerm;43666;51.442;6.778;2023-06-10T01:49:30;39.71;37.70;41.61;;
49732;Laerm;43666;51.442;6.778;2023-06-10T01:51:55;39.73;37.32;41.38;;
49732;Laerm;43666;51.442;6.778;2023-06-10T01:54:21;39.72;37.70;41.46;;
49732;Laerm;43666;51.442;6.778;2023-06-10T01:56:46;39.72;37.32;41.46;;
49732;Laerm;43666;51.442;6.778;2023-06-10T01:59:12;39.72;37.32;41.61;;
49732;Laerm;43666;51.442;6.778;2023-06-10T02:01:38;39.69;37.52;41.46;;
49732;Laerm;43666;51.442;6.778;2023-06-10T02:04:05;39.69;37.52;41.30;;
49732;Laerm;43666;51.442;6.778;2023-06-10T02:06:31;39.67;37.52;41.68;;
49732;Laerm;43666;51.442;6.778;2023-06-10T02:08:56;39.66;37.52;41.53;;
49732;Laerm;43666;51.442;6.778;2023-06-10T02:11:23;39.65;37.52;41.53;;
49732;Laerm;43666;51.442;6.778;2023-06-10T02:13:48;39.65;37.32;41.30;;
49732;Laerm;43666;51.442;6.778;2023-06-10T02:16:15;39.65;37.52;41.14;;
49732;Laerm;43666;51.442;6.778;2023-06-10T02:18:42;39.66;37.12;41.46;;
49732;Laerm;43666;51.442;6.778;2023-06-10T02:21:08;39.61;37.52;41.46;;
49732;Laerm;43666;51.442;6.778;2023-06-10T02:23:34;39.57;37.32;41.46;;
49732;Laerm;43666;51.442;6.778;2023-06-10T02:26:00;39.56;37.12;41.30;;
49732;Laerm;43666;51.442;6.778;2023-06-10T02:28:27;39.58;36.91;41.38;;
49732;Laerm;43666;51.442;6.778;2023-06-10T02:30:53;39.55;37.12;41.30;;
49732;Laerm;43666;51.442;6.778;2023-06-10T02:33:19;39.55;37.12;41.14;;
49732;Laerm;43666;51.442;6.778;2023-06-10T02:35:45;39.58;37.12;41.22;;
49732;Laerm;43666;51.442;6.778;2023-06-10T02:38:11;39.54;37.12;41.53;;
49732;Laerm;43666;51.442;6.778;2023-06-10T02:40:36;39.52;37.12;41.38;;
49732;Laerm;43666;51.442;6.778;2023-06-10T02:43:02;39.50;37.32;41.14;;
49732;Laerm;43666;51.442;6.778;2023-06-10T02:45:28;39.55;37.12;41.22;;
49732;Laerm;43666;51.442;6.778;2023-06-10T02:47:54;39.51;37.17;41.48;;
49732;Laerm;43666;51.442;6.778;2023-06-10T02:50:19;39.48;37.32;41.30;;
49732;Laerm;43666;51.442;6.778;2023-06-10T02:52:45;39.45;36.91;41.06;;
49732;Laerm;43666;51.442;6.778;2023-06-10T02:55:11;39.40;37.12;41.30;;
49732;Laerm;43666;51.442;6.778;2023-06-10T02:57:37;39.32;36.69;41.06;;
49732;Laerm;43666;51.442;6.778;2023-06-10T03:00:03;39.30;36.91;41.22;;
49732;Laerm;43666;51.442;6.778;2023-06-10T03:02:35;39.28;36.91;41.30;;
49732;Laerm;43666;51.442;6.778;2023-06-10T03:05:04;39.29;36.56;41.46;;
49732;Laerm;43666;51.442;6.778;2023-06-10T03:07:45;39.24;36.69;41.06;;
49732;Laerm;43666;51.442;6.778;2023-06-10T03:10:12;39.20;36.45;41.38;;
49732;Laerm;43666;51.442;6.778;2023-06-10T03:12:38;39.17;36.45;41.14;;
49732;Laerm;43666;51.442;6.778;2023-06-10T03:15:05;39.14;36.91;41.06;;
49732;Laerm;43666;51.442;6.778;2023-06-10T03:17:31;39.15;36.45;40.98;;
49732;Laerm;43666;51.442;6.778;2023-06-10T03:19:57;39.14;36.69;40.98;;
49732;Laerm;43666;51.442;6.778;2023-06-10T03:22:22;39.11;36.20;41.14;;
49732;Laerm;43666;51.442;6.778;2023-06-10T03:24:48;39.08;36.45;41.14;;
49732;Laerm;43666;51.442;6.778;2023-06-10T03:27:15;39.03;36.45;41.22;;
49732;Laerm;43666;51.442;6.778;2023-06-10T03:29:41;39.04;36.69;41.06;;
49732;Laerm;43666;51.442;6.778;2023-06-10T03:32:08;39.05;36.77;41.06;;
49732;Laerm;43666;51.442;6.778;2023-06-10T03:34:35;39.04;36.20;40.80;;
49732;Laerm;43666;51.442;6.778;2023-06-10T03:37:00;39.00;36.91;40.98;;
49732;Laerm;43666;51.442;6.778;2023-06-10T03:39:26;38.97;36.20;41.06;;
49732;Laerm;43666;51.442;6.778;2023-06-10T03:42:02;38.95;36.69;40.89;;
49732;Laerm;43666;51.442;6.778;2023-06-10T03:44:29;38.93;36.20;40.89;;
49732;Laerm;43666;51.442;6.778;2023-06-10T03:46:56;38.93;36.20;41.06;;
49732;Laerm;43666;51.442;6.778;2023-06-10T03:49:23;38.92;36.10;40.98;;
49732;Laerm;43666;51.442;6.778;2023-06-10T03:51:51;38.92;36.34;40.80;;
49732;Laerm;43666;51.442;6.778;2023-06-10T03:54:16;38.87;36.20;40.98;;
49732;Laerm;43666;51.442;6.778;2023-06-10T03:56:42;38.86;36.20;41.46;;
49732;Laerm;43666;51.442;6.778;2023-06-10T03:59:08;38.85;36.45;41.06;;
49732;Laerm;43666;51.442;6.778;2023-06-10T04:01:34;38.89;36.45;41.06;;
49732;Laerm;43666;51.442;6.778;2023-06-10T04:04:00;38.86;35.94;40.98;;
49732;Laerm;43666;51.442;6.778;2023-06-10T04:06:26;38.87;36.45;40.89;;
49732;Laerm;43666;51.442;6.778;2023-06-10T04:08:55;38.86;36.20;40.71;;
49732;Laerm;43666;51.442;6.778;2023-06-10T04:11:23;38.88;36.45;40.89;;
49732;Laerm;43666;51.442;6.778;2023-06-10T04:13:49;38.92;36.20;40.98;;
49732;Laerm;43666;51.442;6.778;2023-06-10T04:16:15;38.98;35.94;41.75;;
49732;Laerm;43666;51.442;6.778;2023-06-10T04:18:41;38.96;36.20;41.06;;
49732;Laerm;43666;51.442;6.778;2023-06-10T04:21:09;38.93;36.20;41.68;;
49732;Laerm;43666;51.442;6.778;2023-06-10T04:23:35;38.98;35.94;41.75;;
49732;Laerm;43666;51.442;6.778;2023-06-10T04:26:02;38.95;36.69;41.46;;
49732;Laerm;43666;51.442;6.778;2023-06-10T04:28:28;38.88;35.94;40.98;;
49732;Laerm;43666;51.442;6.778;2023-06-10T04:30:54;38.83;35.94;40.80;;
49732;Laerm;43666;51.442;6.778;2023-06-10T04:33:20;38.99;36.45;41.14;;
49732;Laerm;43666;51.442;6.778;2023-06-10T04:35:46;39.18;36.20;43.29;;
49732;Laerm;43666;51.442;6.778;2023-06-10T04:38:13;39.10;36.45;41.22;;
49732;Laerm;43666;51.442;6.778;2023-06-10T04:40:40;39.09;36.20;41.82;;
49732;Laerm;43666;51.442;6.778;2023-06-10T04:43:06;39.18;36.45;41.38;;
49732;Laerm;43666;51.442;6.778;2023-06-10T04:45:31;39.22;36.20;41.75;;
49732;Laerm;43666;51.442;6.778;2023-06-10T04:47:58;39.35;36.69;41.89;;
49732;Laerm;43666;51.442;6.778;2023-06-10T04:50:24;39.35;36.98;41.53;;
49732;Laerm;43666;51.442;6.778;2023-06-10T04:52:51;39.35;36.91;41.46;;
49732;Laerm;43666;51.442;6.778;2023-06-10T04:55:17;39.35;36.91;41.46;;
49732;Laerm;43666;51.442;6.778;2023-06-10T04:57:43;39.36;36.20;41.96;;
49732;Laerm;43666;51.442;6.778;2023-06-10T05:00:09;39.26;36.91;41.41;;
49732;Laerm;43666;51.442;6.778;2023-06-10T05:02:36;39.29;35.94;41.46;;
49732;Laerm;43666;51.442;6.778;2023-06-10T05:05:02;39.41;36.69;41.82;;
49732;Laerm;43666;51.442;6.778;2023-06-10T05:07:28;39.46;36.69;43.39;;
49732;Laerm;43666;51.442;6.778;2023-06-10T05:09:54;39.35;37.12;41.89;;
49732;Laerm;43666;51.442;6.778;2023-06-10T05:12:20;39.37;37.12;41.22;;
49732;Laerm;43666;51.442;6.778;2023-06-10T05:14:45;39.48;36.91;41.75;;
49732;Laerm;43666;51.442;6.778;2023-06-10T05:17:11;39.39;37.12;41.46;;
49732;Laerm;43666;51.442;6.778;2023-06-10T05:19:39;39.41;36.91;41.53;;
49732;Laerm;43666;51.442;6.778;2023-06-10T05:22:05;39.38;36.69;41.22;;
49732;Laerm;43666;51.442;6.778;2023-06-10T05:24:31;39.40;36.91;41.38;;
49732;Laerm;43666;51.442;6.778;2023-06-10T05:26:57;39.40;37.12;41.06;;
49732;Laerm;43666;51.442;6.778;2023-06-10T05:29:22;39.38;37.12;41.14;;
49732;Laerm;43666;51.442;6.778;2023-06-10T05:31:48;39.42;36.69;41.46;;
49732;Laerm;43666;51.442;6.778;2023-06-10T05:34:14;39.42;37.12;41.30;;
49732;Laerm;43666;51.442;6.778;2023-06-10T05:36:39;39.45;37.32;41.38;;
49732;Laerm;43666;51.442;6.778;2023-06-10T05:39:05;39.48;37.12;41.46;;
49732;Laerm;43666;51.442;6.778;2023-06-10T05:41:31;39.47;36.69;41.30;;
49732;Laerm;43666;51.442;6.778;2023-06-10T05:43:57;39.55;37.52;41.61;;
49732;Laerm;43666;51.442;6.778;2023-06-10T05:46:23;39.56;37.52;41.82;;
49732;Laerm;43666;51.442;6.778;2023-06-10T05:48:50;39.61;37.52;41.38;;
49732;Laerm;43666;51.442;6.778;2023-06-10T05:51:16;39.62;37.52;41.30;;
49732;Laerm;43666;51.442;6.778;2023-06-10T05:53:42;39.68;37.52;41.46;;
49732;Laerm;43666;51.442;6.778;2023-06-10T05:56:08;39.72;37.52;41.38;;
49732;Laerm;43666;51.442;6.778;2023-06-10T05:58:33;39.70;37.32;41.38;;
49732;Laerm;43666;51.442;6.778;2023-06-10T06:00:59;39.73;37.52;41.46;;
49732;Laerm;43666;51.442;6.778;2023-06-10T06:03:25;39.73;37.52;41.46;;
49732;Laerm;43666;51.442;6.778;2023-06-10T06:05:51;39.75;37.12;41.46;;
49732;Laerm;43666;51.442;6.778;2023-06-10T06:08:16;39.79;37.70;41.46;;
49732;Laerm;43666;51.442;6.778;2023-06-10T06:10:44;39.75;37.70;41.38;;
49732;Laerm;43666;51.442;6.778;2023-06-10T06:13:10;39.80;37.52;41.68;;
49732;Laerm;43666;51.442;6.778;2023-06-10T06:15:35;39.87;37.88;41.75;;
49732;Laerm;43666;51.442;6.778;2023-06-10T06:18:01;39.91;38.05;41.68;;
49732;Laerm;43666;51.442;6.778;2023-06-10T06:20:28;39.96;37.88;41.68;;
49732;Laerm;43666;51.442;6.778;2023-06-10T06:22:55;39.93;37.88;41.53;;
49732;Laerm;43666;51.442;6.778;2023-06-10T06:25:20;39.97;37.70;41.82;;
49732;Laerm;43666;51.442;6.778;2023-06-10T06:27:46;40.02;38.05;41.68;;
49732;Laerm;43666;51.442;6.778;2023-06-10T06:30:12;40.06;38.05;41.68;;
49732;Laerm;43666;51.442;6.778;2023-06-10T06:32:38;40.06;38.05;41.75;;
49732;Laerm;43666;51.442;6.778;2023-06-10T06:35:04;40.09;38.05;41.82;;
49732;Laerm;43666;51.442;6.778;2023-06-10T06:37:33;40.08;38.05;41.61;;
49732;Laerm;43666;51.442;6.778;2023-06-10T06:40:00;40.09;37.70;41.96;;
49732;Laerm;43666;51.442;6.778;2023-06-10T06:42:26;40.13;37.70;42.16;;
49732;Laerm;43666;51.442;6.778;2023-06-10T06:44:51;40.11;37.70;41.82;;
49732;Laerm;43666;51.442;6.778;2023-06-10T06:47:17;40.15;37.88;41.68;;
49732;Laerm;43666;51.442;6.778;2023-06-10T06:49:48;40.17;38.05;41.75;;
49732;Laerm;43666;51.442;6.778;2023-06-10T06:52:15;40.20;37.88;41.82;;
49732;Laerm;43666;51.442;6.778;2023-06-10T06:54:40;40.22;38.05;42.09;;
49732;Laerm;43666;51.442;6.778;2023-06-10T06:57:06;40.23;37.70;42.03;;
49732;Laerm;43666;51.442;6.778;2023-06-10T06:59:32;40.23;38.37;42.09;;
49732;Laerm;43666;51.442;6.778;2023-06-10T07:01:58;40.25;38.05;41.89;;
49732;Laerm;43666;51.442;6.778;2023-06-10T07:04:24;40.27;37.70;41.89;;
49732;Laerm;43666;51.442;6.778;2023-06-10T07:06:50;40.24;38.05;42.03;;
49732;Laerm;43666;51.442;6.778;2023-06-10T07:09:16;40.25;38.21;41.89;;
49732;Laerm;43666;51.442;6.778;2023-06-10T07:11:42;40.24;38.21;41.75;;
49732;Laerm;43666;51.442;6.778;2023-06-10T07:14:08;40.27;38.05;42.16;;
49732;Laerm;43666;51.442;6.778;2023-06-10T07:16:34;40.27;38.05;41.75;;
49732;Laerm;43666;51.442;6.778;2023-06-10T07:19:00;40.28;38.37;41.82;;
49732;Laerm;43666;51.442;6.778;2023-06-10T07:21:25;40.29;38.21;42.09;;
49732;Laerm;43666;51.442;6.778;2023-06-10T07:23:54;40.27;38.21;42.29;;
49732;Laerm;43666;51.442;6.778;2023-06-10T07:26:22;40.28;38.37;41.96;;
49732;Laerm;43666;51.442;6.778;2023-06-10T07:28:47;40.30;38.37;41.89;;
49732;Laerm;43666;51.442;6.778;2023-06-10T07:31:13;40.30;38.37;41.96;;
49732;Laerm;43666;51.442;6.778;2023-06-10T07:33:39;40.28;38.37;41.89;;
49732;Laerm;43666;51.442;6.778;2023-06-10T07:36:05;40.32;38.52;41.82;;
49732;Laerm;43666;51.442;6.778;2023-06-10T07:38:31;40.33;38.05;41.82;;
49732;Laerm;43666;51.442;6.778;2023-06-10T07:40:58;40.36;38.05;42.29;;
49732;Laerm;43666;51.442;6.778;2023-06-10T07:43:24;40.35;38.52;42.09;;
49732;Laerm;43666;51.442;6.778;2023-06-10T07:45:50;40.37;37.70;41.89;;
49732;Laerm;43666;51.442;6.778;2023-06-10T07:48:16;40.37;38.37;41.96;;
49732;Laerm;43666;51.442;6.778;2023-06-10T07:50:41;40.38;38.37;42.03;;
49732;Laerm;43666;51.442;6.778;2023-06-10T07:53:07;40.38;38.21;41.96;;
49732;Laerm;43666;51.442;6.778;2023-06-10T07:55:33;40.37;38.52;41.89;;
49732;Laerm;43666;51.442;6.778;2023-06-10T07:57:59;40.39;38.37;41.96;;
49732;Laerm;43666;51.442;6.778;2023-06-10T08:00:26;40.39;38.05;42.03;;
49732;Laerm;43666;51.442;6.778;2023-06-10T08:02:51;40.37;37.70;42.30;;
49732;Laerm;43666;51.442;6.778;2023-06-10T08:05:17;40.40;37.88;42.16;;
49732;Laerm;43666;51.442;6.778;2023-06-10T08:07:44;40.39;38.21;42.16;;
49732;Laerm;43666;51.442;6.778;2023-06-10T08:10:11;40.40;38.67;41.89;;
49732;Laerm;43666;51.442;6.778;2023-06-10T08:12:37;40.43;38.21;41.96;;
49732;Laerm;43666;51.442;6.778;2023-06-10T08:15:03;40.41;38.37;42.09;;
49732;Laerm;43666;51.442;6.778;2023-06-10T08:17:32;40.41;37.88;42.16;;
49732;Laerm;43666;51.442;6.778;2023-06-10T08:19:58;40.43;38.37;42.03;;
49732;Laerm;43666;51.442;6.778;2023-06-10T08:22:25;40.45;38.21;42.22;;
49732;Laerm;43666;51.442;6.778;2023-06-10T08:24:51;40.47;38.37;42.35;;
49732;Laerm;43666;51.442;6.778;2023-06-10T08:27:16;40.47;38.52;42.03;;
49732;Laerm;43666;51.442;6.778;2023-06-10T08:29:42;40.47;38.52;42.16;;
49732;Laerm;43666;51.442;6.778;2023-06-10T08:32:08;40.49;38.21;41.96;;
49732;Laerm;43666;51.442;6.778;2023-06-10T08:34:34;40.47;38.37;42.16;;
49732;Laerm;43666;51.442;6.778;2023-06-10T08:37:03;40.48;38.32;42.16;;
49732;Laerm;43666;51.442;6.778;2023-06-10T08:39:29;40.50;38.52;42.16;;
49732;Laerm;43666;51.442;6.778;2023-06-10T08:44:28;40.49;37.88;42.29;;
49732;Laerm;43666;51.442;6.778;2023-06-10T08:46:59;40.49;38.52;42.03;;
49732;Laerm;43666;51.442;6.778;2023-06-10T08:49:26;40.50;38.52;41.96;;
49732;Laerm;43666;51.442;6.778;2023-06-10T08:51:58;40.49;38.21;42.16;;
49732;Laerm;43666;51.442;6.778;2023-06-10T08:54:25;40.49;38.37;42.16;;
49732;Laerm;43666;51.442;6.778;2023-06-10T08:56:51;40.51;37.70;42.09;;
49732;Laerm;43666;51.442;6.778;2023-06-10T08:59:19;40.51;38.37;42.53;;
49732;Laerm;43666;51.442;6.778;2023-06-10T09:01:45;40.52;38.37;42.09;;
49732;Laerm;43666;51.442;6.778;2023-06-10T09:04:11;40.53;38.37;42.22;;
49732;Laerm;43666;51.442;6.778;2023-06-10T09:06:38;40.53;38.21;42.09;;
49732;Laerm;43666;51.442;6.778;2023-06-10T09:09:05;40.52;37.70;42.09;;
49732;Laerm;43666;51.442;6.778;2023-06-10T09:11:31;40.52;38.37;42.16;;
49732;Laerm;43666;51.442;6.778;2023-06-10T09:13:58;40.52;38.21;42.16;;
49732;Laerm;43666;51.442;6.778;2023-06-10T09:16:24;40.52;38.21;42.19;;
49732;Laerm;43666;51.442;6.778;2023-06-10T09:18:53;40.53;38.05;43.46;;
49732;Laerm;43666;51.442;6.778;2023-06-10T09:21:23;40.51;38.21;42.35;;
49732;Laerm;43666;51.442;6.778;2023-06-10T09:23:49;40.53;38.37;42.09;;
49732;Laerm;43666;51.442;6.778;2023-06-10T09:26:15;40.50;38.37;42.22;;
49732;Laerm;43666;51.442;6.778;2023-06-10T09:28:45;40.48;38.37;42.06;;
49732;Laerm;43666;51.442;6.778;2023-06-10T09:31:13;40.52;38.67;42.53;;
49732;Laerm;43666;51.442;6.778;2023-06-10T09:33:39;40.52;38.05;42.22;;
49732;Laerm;43666;51.442;6.778;2023-06-10T09:36:05;40.50;38.18;42.09;;
49732;Laerm;43666;51.442;6.778;2023-06-10T09:38:31;40.51;38.52;42.09;;
49732;Laerm;43666;51.442;6.778;2023-06-10T09:40:58;40.49;38.21;42.36;;
49732;Laerm;43666;51.442;6.778;2023-06-10T09:43:40;40.51;38.21;42.09;;
49732;Laerm;43666;51.442;6.778;2023-06-10T09:46:08;40.52;38.67;42.03;;
49732;Laerm;43666;51.442;6.778;2023-06-10T09:48:40;40.53;38.47;42.59;;
49732;Laerm;43666;51.442;6.778;2023-06-10T09:51:08;40.52;38.37;43.09;;
49732;Laerm;43666;51.442;6.778;2023-06-10T09:53:34;40.51;38.37;42.22;;
49732;Laerm;43666;51.442;6.778;2023-06-10T09:56:00;40.54;37.12;42.29;;
49732;Laerm;43666;51.442;6.778;2023-06-10T09:58:39;40.51;38.05;42.22;;
49732;Laerm;43666;51.442;6.778;2023-06-10T10:01:06;40.54;38.05;42.09;;
49732;Laerm;43666;51.442;6.778;2023-06-10T10:03:32;40.55;38.05;44.65;;
49732;Laerm;43666;51.442;6.778;2023-06-10T10:05:59;40.55;37.88;46.73;;
49732;Laerm;43666;51.442;6.778;2023-06-10T10:08:28;40.55;37.88;42.16;;
49732;Laerm;43666;51.442;6.778;2023-06-10T10:10:55;40.50;37.12;42.16;;
49732;Laerm;43666;51.442;6.778;2023-06-10T10:13:22;40.51;38.52;42.29;;
49732;Laerm;43666;51.442;6.778;2023-06-10T10:15:49;40.44;37.88;42.09;;
49732;Laerm;43666;51.442;6.778;2023-06-10T10:18:17;40.46;37.88;42.03;;
49732;Laerm;43666;51.442;6.778;2023-06-10T10:20:49;40.45;38.05;42.29;;
49732;Laerm;43666;51.442;6.778;2023-06-10T10:23:18;40.48;37.87;42.22;;
49732;Laerm;43666;51.442;6.778;2023-06-10T10:25:50;40.46;37.70;42.29;;
49732;Laerm;43666;51.442;6.778;2023-06-10T10:28:16;40.44;37.88;42.29;;
49732;Laerm;43666;51.442;6.778;2023-06-10T10:30:52;40.49;37.52;42.35;;
49732;Laerm;43666;51.442;6.778;2023-06-10T10:33:18;40.40;36.91;42.09;;
49732;Laerm;43666;51.442;6.778;2023-06-10T10:35:46;40.42;38.21;42.22;;
49732;Laerm;43666;51.442;6.778;2023-06-10T10:38:12;40.43;38.05;42.47;;
49732;Laerm;43666;51.442;6.778;2023-06-10T10:40:38;40.38;37.32;42.09;;
49732;Laerm;43666;51.442;6.778;2023-06-10T10:43:05;40.36;36.91;42.09;;
49732;Laerm;43666;51.442;6.778;2023-06-10T10:45:33;40.40;36.69;42.22;;
49732;Laerm;43666;51.442;6.778;2023-06-10T10:47:58;40.38;36.20;42.53;;
49732;Laerm;43666;51.442;6.778;2023-06-10T10:50:30;40.41;37.52;41.96;;
49732;Laerm;43666;51.442;6.778;2023-06-10T10:53:03;40.41;37.12;42.09;;
49732;Laerm;43666;51.442;6.778;2023-06-10T10:55:30;40.32;36.69;42.22;;
49732;Laerm;43666;51.442;6.778;2023-06-10T10:57:59;40.28;38.02;41.96;;
49732;Laerm;43666;51.442;6.778;2023-06-10T11:00:28;40.20;37.70;42.03;;
49732;Laerm;43666;51.442;6.778;2023-06-10T11:10:54;40.20;37.52;44.03;;
49732;Laerm;43666;51.442;6.778;2023-06-10T11:13:21;40.27;37.52;42.09;;
49732;Laerm;43666;51.442;6.778;2023-06-10T11:15:48;40.19;37.70;42.29;;
49732;Laerm;43666;51.442;6.778;2023-06-10T11:28:40;40.09;36.91;41.81;;
49732;Laerm;43666;51.442;6.778;2023-06-10T11:31:06;40.07;36.45;43.14;;
49732;Laerm;43666;51.442;6.778;2023-06-10T11:33:32;40.01;36.69;41.96;;
49732;Laerm;43666;51.442;6.778;2023-06-10T11:35:58;39.95;36.56;41.96;;
49732;Laerm;43666;51.442;6.778;2023-06-10T11:38:24;39.93;36.91;42.22;;
49732;Laerm;43666;51.442;6.778;2023-06-10T11:40:51;39.99;36.91;42.09;;
49732;Laerm;43666;51.442;6.778;2023-06-10T11:43:17;39.96;36.20;41.96;;
49732;Laerm;43666;51.442;6.778;2023-06-10T11:45:43;39.94;37.12;42.16;;
49732;Laerm;43666;51.442;6.778;2023-06-10T11:48:10;39.81;36.45;42.88;;
49732;Laerm;43666;51.442;6.778;2023-06-10T11:50:35;39.82;35.36;41.89;;
49732;Laerm;43666;51.442;6.778;2023-06-10T11:53:03;39.79;36.69;42.59;;
49732;Laerm;43666;51.442;6.778;2023-06-10T11:55:45;39.86;35.04;45.66;;
49732;Laerm;43666;51.442;6.778;2023-06-10T11:58:19;39.76;30.89;42.22;;
49732;Laerm;43666;51.442;6.778;2023-06-10T12:00:51;39.77;35.36;41.82;;
49732;Laerm;43666;51.442;6.778;2023-06-10T12:03:19;39.76;36.69;41.82;;
49732;Laerm;43666;51.442;6.778;2023-06-10T12:05:58;39.69;36.69;41.82;;
49732;Laerm;43666;51.442;6.778;2023-06-10T12:08:24;39.51;36.45;41.96;;
49732;Laerm;43666;51.442;6.778;2023-06-10T12:10:50;39.52;35.04;41.75;;
49732;Laerm;43666;51.442;6.778;2023-06-10T12:13:18;39.55;35.94;41.75;;
49732;Laerm;43666;51.442;6.778;2023-06-10T12:15:43;39.60;36.45;41.89;;
49732;Laerm;43666;51.442;6.778;2023-06-10T12:18:23;39.52;35.94;41.75;;
49732;Laerm;43666;51.442;6.778;2023-06-10T12:20:50;39.55;36.45;41.82;;
49732;Laerm;43666;51.442;6.778;2023-06-10T12:23:19;39.53;36.20;41.82;;
49732;Laerm;43666;51.442;6.778;2023-06-10T12:25:52;39.51;36.20;42.65;;
49732;Laerm;43666;51.442;6.778;2023-06-10T12:28:25;39.53;35.66;41.68;;
49732;Laerm;43666;51.442;6.778;2023-06-10T12:30:51;39.50;36.45;41.53;;
49732;Laerm;43666;51.442;6.778;2023-06-10T12:33:18;39.58;36.20;43.24;;
49732;Laerm;43666;51.442;6.778;2023-06-10T12:35:47;39.60;36.45;41.82;;
49732;Laerm;43666;51.442;6.778;2023-06-10T12:38:13;39.61;36.45;42.03;;
49732;Laerm;43666;51.442;6.778;2023-06-10T12:40:40;39.42;36.20;41.89;;
49732;Laerm;43666;51.442;6.778;2023-06-10T12:43:07;39.40;36.20;41.75;;
49732;Laerm;43666;51.442;6.778;2023-06-10T12:45:34;39.39;35.66;41.38;;
49732;Laerm;43666;51.442;6.778;2023-06-10T12:48:19;39.46;36.45;41.82;;
49732;Laerm;43666;51.442;6.778;2023-06-10T12:53:18;39.32;35.94;41.68;;
49732;Laerm;43666;51.442;6.778;2023-06-10T12:55:45;39.28;35.36;41.68;;
49732;Laerm;43666;51.442;6.778;2023-06-10T12:58:11;39.28;35.66;41.68;;
49732;Laerm;43666;51.442;6.778;2023-06-10T13:00:37;39.18;36.20;41.61;;
49732;Laerm;43666;51.442;6.778;2023-06-10T13:03:03;39.21;35.66;41.68;;
49732;Laerm;43666;51.442;6.778;2023-06-10T13:05:32;39.26;36.20;41.38;;
49732;Laerm;43666;51.442;6.778;2023-06-10T13:07:59;39.30;35.86;41.53;;
49732;Laerm;43666;51.442;6.778;2023-06-10T13:10:25;39.32;35.94;41.75;;
49732;Laerm;43666;51.442;6.778;2023-06-10T13:12:51;39.32;36.20;41.75;;
49732;Laerm;43666;51.442;6.778;2023-06-10T13:15:17;39.32;35.66;41.75;;
49732;Laerm;43666;51.442;6.778;2023-06-10T13:17:43;39.33;35.66;41.48;;
49732;Laerm;43666;51.442;6.778;2023-06-10T13:20:10;39.33;35.94;41.89;;
49732;Laerm;43666;51.442;6.778;2023-06-10T13:22:37;39.38;35.66;42.93;;
49732;Laerm;43666;51.442;6.778;2023-06-10T13:25:03;39.32;35.94;41.53;;
49732;Laerm;43666;51.442;6.778;2023-06-10T13:27:29;39.47;35.66;48.77;;
49732;Laerm;43666;51.442;6.778;2023-06-10T13:29:55;39.33;35.36;44.47;;
49732;Laerm;43666;51.442;6.778;2023-06-10T13:32:21;39.36;35.66;41.61;;
49732;Laerm;43666;51.442;6.778;2023-06-10T13:34:46;39.34;34.31;41.46;;
49732;Laerm;43666;51.442;6.778;2023-06-10T13:37:12;39.33;35.94;41.38;;
49732;Laerm;43666;51.442;6.778;2023-06-10T13:39:38;39.33;35.36;41.46;;
49732;Laerm;43666;51.442;6.778;2023-06-10T13:42:04;39.31;35.94;41.46;;
49732;Laerm;43666;51.442;6.778;2023-06-10T13:44:33;39.35;36.45;41.61;;
49732;Laerm;43666;51.442;6.778;2023-06-10T13:47:04;39.36;36.20;41.96;;
49732;Laerm;43666;51.442;6.778;2023-06-10T13:49:30;39.36;35.66;41.46;;
49732;Laerm;43666;51.442;6.778;2023-06-10T13:51:56;39.28;35.94;41.82;;
49732;Laerm;43666;51.442;6.778;2023-06-10T13:54:22;39.23;35.94;41.38;;
49732;Laerm;43666;51.442;6.778;2023-06-10T13:56:48;39.14;35.36;41.61;;
49732;Laerm;43666;51.442;6.778;2023-06-10T13:59:14;39.28;35.94;41.68;;
49732;Laerm;43666;51.442;6.778;2023-06-10T14:01:39;39.30;35.66;41.53;;
49732;Laerm;43666;51.442;6.778;2023-06-10T14:04:06;39.27;35.31;42.76;;
49732;Laerm;43666;51.442;6.778;2023-06-10T14:06:32;39.32;35.66;41.81;;
49732;Laerm;43666;51.442;6.778;2023-06-10T14:08:59;39.19;35.86;41.75;;
49732;Laerm;43666;51.442;6.778;2023-06-10T14:11:24;39.07;35.36;41.61;;